createdAt,value
2017-08-28T00:03:57.203Z,17.90
2017-08-28T00:09:25.357Z,16.87
2017-08-28T00:14:53.495Z,11.10
2017-08-28T00:20:21.638Z,12.97
2017-08-28T00:25:49.857Z,9.37
2017-08-28T00:31:18.017Z,11.63
2017-08-28T00:36:46.416Z,12.83
2017-08-28T00:42:15.530Z,16.47
2017-08-28T00:47:43.689Z,14.13
2017-08-28T00:53:11.944Z,14.07
2017-08-28T00:58:40.301Z,12.50
2017-08-28T01:04:08.449Z,9.47
2017-08-28T01:09:36.606Z,17.27
2017-08-28T01:15:04.783Z,12.43
2017-08-28T01:20:32.922Z,13.40
2017-08-28T01:26:01.045Z,14.23
2017-08-28T01:31:29.184Z,13.07
2017-08-28T01:36:57.350Z,16.33
2017-08-28T01:42:25.479Z,8.80
2017-08-28T01:47:53.645Z,15.80
2017-08-28T01:53:21.820Z,14.20
2017-08-28T01:58:49.976Z,12.10
2017-08-28T02:04:18.114Z,15.53
2017-08-28T02:09:46.393Z,14.50
2017-08-28T02:15:14.722Z,10.53
2017-08-28T02:20:42.917Z,14.13
2017-08-28T02:26:11.141Z,10.50
2017-08-28T02:31:39.311Z,12.33
2017-08-28T02:37:07.484Z,11.80
2017-08-28T02:42:35.658Z,12.00
2017-08-28T02:48:03.812Z,10.90
2017-08-28T02:53:31.972Z,15.63
2017-08-28T02:59:00.158Z,11.43
2017-08-28T03:04:28.351Z,13.20
2017-08-28T03:09:56.490Z,9.40
2017-08-28T03:15:24.659Z,10.13
2017-08-28T03:20:52.814Z,13.40
2017-08-28T03:26:20.969Z,13.20
2017-08-28T03:31:49.144Z,10.37
2017-08-28T03:37:18.267Z,12.87
2017-08-28T03:42:46.469Z,10.50
2017-08-28T03:48:14.727Z,9.53
2017-08-28T03:53:42.900Z,16.43
2017-08-28T03:59:11.089Z,15.23
2017-08-28T04:04:39.284Z,10.67
2017-08-28T04:10:08.200Z,13.57
2017-08-28T04:15:36.372Z,13.90
2017-08-28T04:21:04.528Z,10.57
2017-08-28T04:26:32.675Z,12.53
2017-08-28T04:32:00.832Z,14.33
2017-08-28T04:37:29.002Z,11.10
2017-08-28T04:42:57.185Z,12.10
2017-08-28T04:48:25.352Z,12.07
2017-08-28T04:53:53.519Z,8.60
2017-08-28T04:59:21.676Z,13.70
2017-08-28T05:04:49.832Z,12.60
2017-08-28T05:10:17.976Z,12.50
2017-08-28T05:15:46.155Z,10.07
2017-08-28T05:21:14.349Z,10.20
2017-08-28T05:26:42.527Z,12.90
2017-08-28T05:32:10.683Z,11.57
2017-08-28T05:37:38.869Z,11.00
2017-08-28T05:43:07.041Z,10.23
2017-08-28T05:48:35.205Z,10.43
2017-08-28T05:54:03.383Z,9.20
2017-08-28T05:59:31.552Z,16.77
2017-08-28T06:04:59.705Z,10.13
2017-08-28T06:10:27.848Z,12.73
2017-08-28T06:15:56.199Z,12.73
2017-08-28T06:21:24.357Z,11.00
2017-08-28T06:26:52.508Z,13.33
2017-08-28T06:32:20.651Z,10.00
2017-08-28T06:37:48.814Z,15.30
2017-08-28T06:43:16.990Z,12.33
2017-08-28T06:48:45.903Z,13.60
2017-08-28T06:54:14.061Z,14.47
2017-08-28T06:59:42.236Z,12.40
2017-08-28T07:05:10.432Z,19.17
2017-08-28T07:10:38.574Z,21.03
2017-08-28T07:16:06.803Z,26.20
2017-08-28T07:21:34.968Z,26.93
2017-08-28T07:27:03.135Z,24.50
2017-08-28T07:32:31.684Z,23.70
2017-08-28T07:37:59.846Z,17.80
2017-08-28T07:43:28.016Z,20.73
2017-08-28T07:48:56.150Z,20.53
2017-08-28T07:54:24.309Z,18.17
2017-08-28T07:59:52.476Z,18.50
2017-08-28T08:05:20.645Z,18.87
2017-08-28T08:10:48.809Z,20.30
2017-08-28T08:16:17.692Z,19.23
2017-08-28T08:21:45.874Z,19.70
2017-08-28T08:27:14.063Z,20.70
2017-08-28T08:32:42.242Z,21.57
2017-08-28T08:38:10.397Z,21.00
2017-08-28T08:43:38.583Z,20.63
2017-08-28T08:49:06.766Z,18.63
2017-08-28T08:54:35.683Z,24.27
2017-08-28T09:00:03.838Z,38.00
2017-08-28T09:05:31.994Z,32.93
2017-08-28T09:11:00.138Z,51.07
2017-08-28T09:16:28.287Z,37.73
2017-08-28T09:21:56.442Z,42.77
2017-08-28T09:27:24.943Z,39.03
2017-08-28T09:32:53.087Z,39.23
2017-08-28T09:38:21.241Z,35.70
2017-08-28T09:43:49.395Z,49.33
2017-08-28T09:49:17.564Z,48.23
2017-08-28T09:54:45.756Z,52.87
2017-08-28T10:00:13.933Z,52.10
2017-08-28T10:05:42.363Z,46.00
2017-08-28T10:11:10.541Z,58.90
2017-08-28T10:16:38.700Z,45.53
2017-08-28T10:22:06.865Z,51.63
2017-08-28T10:27:35.010Z,50.27
2017-08-28T10:33:03.180Z,52.40
2017-08-28T10:38:31.336Z,46.03
2017-08-28T10:43:59.490Z,35.40
2017-08-28T10:49:27.653Z,41.40
2017-08-28T10:54:55.794Z,40.37
2017-08-28T11:00:23.943Z,48.63
2017-08-28T11:05:52.099Z,37.57
2017-08-28T11:11:20.247Z,38.77
2017-08-28T11:16:48.413Z,32.00
2017-08-28T11:22:16.579Z,32.20
2017-08-28T11:27:44.740Z,30.70
2017-08-28T11:33:12.941Z,37.03
2017-08-28T11:38:41.090Z,29.63
2017-08-28T11:44:09.285Z,20.73
2017-08-28T11:49:37.439Z,26.03
2017-08-28T11:55:05.582Z,21.60
2017-08-28T12:00:33.746Z,31.37
2017-08-28T12:06:01.886Z,25.80
2017-08-28T12:11:30.046Z,27.00
2017-08-28T12:16:58.202Z,21.60
2017-08-28T12:22:26.356Z,19.23
2017-08-28T12:27:54.511Z,26.10
2017-08-28T12:33:22.677Z,84.37
2017-08-28T12:38:50.845Z,17.70
2017-08-28T12:44:19.029Z,20.90
2017-08-28T12:49:47.183Z,17.60
2017-08-28T12:55:15.360Z,23.73
2017-08-28T13:00:43.556Z,16.17
2017-08-28T13:06:11.728Z,21.43
2017-08-28T13:11:39.882Z,12.40
2017-08-28T13:17:08.045Z,16.67
2017-08-28T13:22:36.202Z,17.13
2017-08-28T13:28:04.378Z,14.60
2017-08-28T13:33:32.533Z,16.77
2017-08-28T13:39:00.709Z,16.90
2017-08-28T13:44:28.862Z,14.80
2017-08-28T13:49:57.048Z,13.53
2017-08-28T13:55:25.219Z,16.83
2017-08-28T14:00:53.382Z,15.53
2017-08-28T14:06:21.526Z,17.53
2017-08-28T14:11:49.687Z,13.53
2017-08-28T14:17:17.833Z,10.13
2017-08-28T14:22:46.003Z,13.27
2017-08-28T14:28:14.156Z,12.13
2017-08-28T14:33:42.331Z,15.13
2017-08-28T14:39:10.487Z,11.80
2017-08-28T14:44:38.644Z,11.67
2017-08-28T14:50:06.820Z,11.27
2017-08-28T14:55:34.968Z,11.07
2017-08-28T15:01:03.122Z,16.37
2017-08-28T15:06:31.284Z,11.60
2017-08-28T15:11:59.437Z,10.90
2017-08-28T15:17:27.606Z,15.53
2017-08-28T15:22:55.767Z,14.60
2017-08-28T15:28:23.926Z,12.47
2017-08-28T15:33:52.089Z,18.93
2017-08-28T15:39:20.242Z,18.60
2017-08-28T15:44:48.395Z,18.13
2017-08-28T15:50:16.621Z,18.13
2017-08-28T15:55:44.797Z,21.80
2017-08-28T16:01:12.988Z,16.20
2017-08-28T16:06:41.162Z,16.20
2017-08-28T16:12:09.320Z,18.50
2017-08-28T16:17:37.493Z,18.20
2017-08-28T16:23:05.932Z,23.73
2017-08-28T16:28:34.101Z,21.23
2017-08-28T16:34:02.254Z,25.13
2017-08-28T16:39:30.433Z,21.20
2017-08-28T16:44:58.596Z,19.00
2017-08-28T16:50:26.751Z,20.67
2017-08-28T16:55:54.925Z,20.77
2017-08-28T17:01:23.724Z,21.47
2017-08-28T17:06:52.014Z,20.80
2017-08-28T17:12:20.176Z,21.03
2017-08-28T17:17:48.550Z,23.90
2017-08-28T17:23:17.052Z,14.63
2017-08-28T17:28:45.279Z,23.50
2017-08-28T17:34:13.488Z,19.53
2017-08-28T17:39:41.639Z,16.20
2017-08-28T17:45:09.785Z,14.00
2017-08-28T17:50:37.956Z,18.27
2017-08-28T17:56:06.149Z,18.03
2017-08-28T18:01:34.435Z,19.03
2017-08-28T18:07:03.746Z,23.93
2017-08-28T18:12:31.897Z,25.40
2017-08-28T18:18:00.066Z,42.47
2017-08-28T18:23:28.249Z,30.90
2017-08-28T18:28:56.447Z,26.70
2017-08-28T18:34:24.594Z,21.73
2017-08-28T18:39:52.756Z,28.27
2017-08-28T18:45:20.922Z,23.53
2017-08-28T18:50:49.100Z,19.20
2017-08-28T18:56:18.971Z,22.70
2017-08-28T19:01:47.152Z,19.73
2017-08-28T19:07:15.319Z,23.87
2017-08-28T19:12:43.989Z,24.00
2017-08-28T19:18:12.645Z,24.90
2017-08-28T19:23:40.831Z,28.60
2017-08-28T19:29:09.014Z,32.87
2017-08-28T19:34:42.658Z,26.50
2017-08-28T19:40:10.842Z,27.77
2017-08-28T19:45:39.010Z,28.10
2017-08-28T19:51:07.322Z,31.83
2017-08-28T19:56:35.476Z,28.70
2017-08-28T20:02:03.669Z,34.07
2017-08-28T20:07:31.836Z,31.47
2017-08-28T20:13:00.978Z,31.77
2017-08-28T20:18:29.136Z,30.90
2017-08-28T20:23:58.803Z,30.00
2017-08-28T20:29:27.192Z,29.73
2017-08-28T20:34:55.362Z,33.03
2017-08-28T20:40:23.502Z,28.40
2017-08-28T20:45:51.713Z,33.70
2017-08-28T20:51:19.864Z,39.57
2017-08-28T20:56:48.153Z,29.30
2017-08-28T21:02:16.352Z,35.97
2017-08-28T21:07:44.553Z,31.70
2017-08-28T21:13:12.792Z,35.00
2017-08-28T21:18:40.960Z,27.70
2017-08-28T21:24:09.526Z,33.23
2017-08-28T21:29:37.725Z,31.13
2017-08-28T21:35:05.911Z,26.03
2017-08-28T21:40:34.068Z,26.83
2017-08-28T21:46:02.220Z,29.47
2017-08-28T21:51:30.368Z,25.63
2017-08-28T21:56:58.533Z,29.03
2017-08-28T22:02:26.693Z,28.40
2017-08-28T22:07:54.851Z,32.73
2017-08-28T22:13:23.025Z,26.07
2017-08-28T22:18:51.179Z,24.23
2017-08-28T22:24:19.367Z,27.03
2017-08-28T22:29:47.560Z,23.47
2017-08-28T22:35:15.722Z,25.47
2017-08-28T22:40:43.953Z,23.87
2017-08-28T22:46:12.127Z,23.97
2017-08-28T22:51:40.304Z,27.73
2017-08-28T22:57:08.477Z,29.67
2017-08-28T23:02:36.646Z,20.43
2017-08-28T23:08:04.811Z,27.47
2017-08-28T23:13:32.965Z,25.50
2017-08-28T23:19:01.143Z,23.43
2017-08-28T23:24:29.565Z,24.23
2017-08-28T23:29:57.723Z,21.27
2017-08-28T23:35:25.876Z,20.00
2017-08-28T23:40:54.031Z,20.23
2017-08-28T23:46:22.188Z,24.00
2017-08-28T23:51:50.345Z,29.73
2017-08-28T23:57:18.632Z,19.60
